createdAt,value
2022-11-21T00:00:42.269Z,14.10
2022-11-21T00:01:42.317Z,11.50
2022-11-21T00:02:42.293Z,14.60
2022-11-21T00:03:42.249Z,13.80
2022-11-21T00:04:42.240Z,14.10
2022-11-21T00:05:42.218Z,11.60
2022-11-21T00:06:42.233Z,13.20
2022-11-21T00:07:42.221Z,16.40
2022-11-21T00:08:42.207Z,13.90
2022-11-21T00:09:42.178Z,16.40
2022-11-21T00:10:42.170Z,13.40
2022-11-21T00:11:42.188Z,11.80
2022-11-21T00:12:42.144Z,13.60
2022-11-21T00:13:42.136Z,13.40
2022-11-21T00:14:42.134Z,14.10
2022-11-21T00:15:42.114Z,16.00
2022-11-21T00:16:42.175Z,12.60
2022-11-21T00:17:42.106Z,10.90
2022-11-21T00:18:42.079Z,13.00
2022-11-21T00:19:42.091Z,17.50
2022-11-21T00:20:42.065Z,14.90
2022-11-21T00:21:42.130Z,15.50
2022-11-21T00:22:42.050Z,13.10
2022-11-21T00:23:42.027Z,10.90
2022-11-21T00:24:42.032Z,13.00
2022-11-21T00:25:42.005Z,17.60
2022-11-21T00:26:42.022Z,15.90
2022-11-21T00:27:41.992Z,12.10
2022-11-21T00:28:41.981Z,12.20
2022-11-21T00:29:41.964Z,16.10
2022-11-21T00:30:48.451Z,11.80
2022-11-21T00:31:49.826Z,14.20
2022-11-21T00:32:48.431Z,15.00
2022-11-21T00:33:41.922Z,16.80
2022-11-21T00:34:41.914Z,15.30
2022-11-21T00:35:41.908Z,12.50
2022-11-21T00:36:41.917Z,14.00
2022-11-21T00:37:41.912Z,16.60
2022-11-21T00:38:41.873Z,12.90
2022-11-21T00:39:41.887Z,12.20
2022-11-21T00:40:41.853Z,14.80
2022-11-21T00:41:41.842Z,15.30
2022-11-21T00:42:41.879Z,10.70
2022-11-21T00:43:41.832Z,12.40
2022-11-21T00:44:41.817Z,15.70
2022-11-21T00:45:41.817Z,13.10
2022-11-21T00:46:41.820Z,14.30
2022-11-21T00:47:41.804Z,13.90
2022-11-21T00:48:41.790Z,15.50
2022-11-21T00:49:41.765Z,15.30
2022-11-21T00:50:41.758Z,15.30
2022-11-21T00:51:41.760Z,14.20
2022-11-21T00:52:41.785Z,15.50
2022-11-21T00:53:41.719Z,17.80
2022-11-21T00:54:41.717Z,10.60
2022-11-21T00:55:41.699Z,15.00
2022-11-21T00:56:41.699Z,16.70
2022-11-21T00:57:41.709Z,15.00
2022-11-21T00:58:41.684Z,12.60
2022-11-21T00:59:41.659Z,13.20
2022-11-21T01:00:41.703Z,14.60
2022-11-21T01:01:41.647Z,11.50
2022-11-21T01:02:41.652Z,17.80
2022-11-21T01:03:41.615Z,13.20
2022-11-21T01:04:41.614Z,13.50
2022-11-21T01:05:41.600Z,16.40
2022-11-21T01:06:41.602Z,14.30
2022-11-21T01:07:41.643Z,14.60
2022-11-21T01:08:41.573Z,12.80
2022-11-21T01:09:41.584Z,15.10
2022-11-21T01:10:41.547Z,18.20
2022-11-21T01:11:41.533Z,13.40
2022-11-21T01:12:41.584Z,12.90
2022-11-21T01:13:41.510Z,14.30
2022-11-21T01:14:41.514Z,15.70
2022-11-21T01:15:41.498Z,17.00
2022-11-21T01:16:41.486Z,15.20
2022-11-21T01:17:41.492Z,10.50
2022-11-21T01:18:41.486Z,11.60
2022-11-21T01:19:41.469Z,14.00
2022-11-21T01:20:41.447Z,14.80
2022-11-21T01:21:41.445Z,14.80
2022-11-21T01:22:41.458Z,14.00
2022-11-21T01:23:41.414Z,15.40
2022-11-21T01:24:41.402Z,16.90
2022-11-21T01:25:41.397Z,10.60
2022-11-21T01:26:41.381Z,15.90
2022-11-21T01:27:41.411Z,16.60
2022-11-21T01:28:41.358Z,12.20
2022-11-21T01:29:41.353Z,14.10
2022-11-21T01:30:41.352Z,12.00
2022-11-21T01:31:41.347Z,17.50
2022-11-21T01:32:41.355Z,15.50
2022-11-21T01:33:41.313Z,14.10
2022-11-21T01:34:41.298Z,16.00
2022-11-21T01:35:41.294Z,16.10
2022-11-21T01:36:41.286Z,12.60
2022-11-21T01:37:41.293Z,13.20
2022-11-21T01:38:41.267Z,12.90
2022-11-21T01:39:41.253Z,16.90
2022-11-21T01:40:41.244Z,13.20
2022-11-21T01:41:41.247Z,12.00
2022-11-21T01:42:41.241Z,16.30
2022-11-21T01:43:41.218Z,16.80
2022-11-21T01:44:41.211Z,12.50
2022-11-21T01:45:41.196Z,14.40
2022-11-21T01:46:41.202Z,13.60
2022-11-21T01:47:41.179Z,17.00
2022-11-21T01:48:41.175Z,13.90
2022-11-21T01:49:41.159Z,17.80
2022-11-21T01:50:41.161Z,13.60
2022-11-21T01:51:41.132Z,15.40
2022-11-21T01:52:41.124Z,15.20
2022-11-21T01:53:48.862Z,14.90
2022-11-21T01:54:47.581Z,17.50
2022-11-21T01:55:47.584Z,15.80
2022-11-21T01:56:48.567Z,17.60
2022-11-21T01:57:47.566Z,15.80
2022-11-21T01:58:48.929Z,18.50
2022-11-21T01:59:47.552Z,17.80
2022-11-21T02:00:41.084Z,16.70
2022-11-21T02:01:41.027Z,14.40
2022-11-21T02:02:41.023Z,16.20
2022-11-21T02:03:41.035Z,15.00
2022-11-21T02:04:41.008Z,14.40
2022-11-21T02:05:40.996Z,17.20
2022-11-21T02:06:40.973Z,16.60
2022-11-21T02:07:41.029Z,16.10
2022-11-21T02:08:40.979Z,13.60
2022-11-21T02:09:40.943Z,15.30
2022-11-21T02:10:40.943Z,18.90
2022-11-21T02:11:40.923Z,18.80
2022-11-21T02:12:47.410Z,14.70
2022-11-21T02:13:40.932Z,16.60
2022-11-21T02:14:40.889Z,17.60
2022-11-21T02:15:40.894Z,16.30
2022-11-21T02:16:40.865Z,17.00
2022-11-21T02:17:40.865Z,17.30
2022-11-21T02:18:40.869Z,16.40
2022-11-21T02:19:40.858Z,15.00
2022-11-21T02:20:40.832Z,17.00
2022-11-21T02:21:40.831Z,18.90
2022-11-21T02:22:40.820Z,11.70
2022-11-21T02:23:40.848Z,16.40
2022-11-21T02:24:40.798Z,18.30
2022-11-21T02:25:40.788Z,15.40
2022-11-21T02:26:40.769Z,13.60
2022-11-21T02:27:40.787Z,14.60
2022-11-21T02:28:40.770Z,17.90
2022-11-21T02:29:40.760Z,14.30
2022-11-21T02:30:40.732Z,12.10
2022-11-21T02:31:40.725Z,16.40
2022-11-21T02:32:40.711Z,18.40
2022-11-21T02:33:40.727Z,15.30
2022-11-21T02:34:40.689Z,18.30
2022-11-21T02:35:40.691Z,18.70
2022-11-21T02:36:40.673Z,15.60
2022-11-21T02:37:40.669Z,17.80
2022-11-21T02:38:40.692Z,18.10
2022-11-21T02:39:40.644Z,13.80
2022-11-21T02:40:40.633Z,16.30
2022-11-21T02:41:40.630Z,21.60
2022-11-21T02:42:40.620Z,14.10
2022-11-21T02:43:40.627Z,19.50
2022-11-21T02:44:40.601Z,19.40
2022-11-21T02:45:40.588Z,15.60
2022-11-21T02:46:40.587Z,16.20
2022-11-21T02:47:40.576Z,18.30
2022-11-21T02:48:49.462Z,15.30
2022-11-21T02:49:47.052Z,19.10
2022-11-21T02:50:47.018Z,16.60
2022-11-21T02:51:40.526Z,16.40
2022-11-21T02:52:40.510Z,18.70
2022-11-21T02:53:40.546Z,17.50
2022-11-21T02:54:40.490Z,16.10
2022-11-21T02:55:40.495Z,16.50
2022-11-21T02:56:40.476Z,14.50
2022-11-21T02:57:40.473Z,18.00
2022-11-21T02:58:40.470Z,15.80
2022-11-21T02:59:40.447Z,18.40
2022-11-21T03:00:40.556Z,17.20
2022-11-21T03:01:40.434Z,18.70
2022-11-21T03:02:40.418Z,21.00
2022-11-21T03:03:40.428Z,14.20
2022-11-21T03:04:40.399Z,14.40
2022-11-21T03:05:40.386Z,15.30
2022-11-21T03:06:40.371Z,17.30
2022-11-21T03:07:40.409Z,17.30
2022-11-21T03:08:40.375Z,12.80
2022-11-21T03:09:40.344Z,13.40
2022-11-21T03:10:40.347Z,21.20
2022-11-21T03:11:40.324Z,14.90
2022-11-21T03:12:40.364Z,16.00
2022-11-21T03:13:40.339Z,16.50
2022-11-21T03:14:40.291Z,17.10
2022-11-21T03:15:40.283Z,17.00
2022-11-21T03:16:40.306Z,14.20
2022-11-21T03:17:40.255Z,16.70
2022-11-21T03:18:40.250Z,15.70
2022-11-21T03:19:40.263Z,17.60
2022-11-21T03:20:40.236Z,15.90
2022-11-21T03:21:40.220Z,16.20
2022-11-21T03:22:40.212Z,12.50
2022-11-21T03:23:40.196Z,14.80
2022-11-21T03:24:40.218Z,15.40
2022-11-21T03:25:40.187Z,19.50
2022-11-21T03:26:40.171Z,15.30
2022-11-21T03:27:40.181Z,15.00
2022-11-21T03:28:40.144Z,15.40
2022-11-21T03:29:40.160Z,18.00
2022-11-21T03:30:40.128Z,15.90
2022-11-21T03:31:40.121Z,14.90
2022-11-21T03:32:40.115Z,17.30
2022-11-21T03:33:40.102Z,14.10
2022-11-21T03:34:40.109Z,16.20
2022-11-21T03:35:40.076Z,16.60
2022-11-21T03:36:40.071Z,19.30
2022-11-21T03:37:40.080Z,13.40
2022-11-21T03:38:40.079Z,15.30
2022-11-21T03:39:40.092Z,14.80
2022-11-21T03:40:40.027Z,18.50
2022-11-21T03:41:40.011Z,16.70
2022-11-21T03:42:40.018Z,16.80
2022-11-21T03:43:40.037Z,13.90
2022-11-21T03:44:40.015Z,16.00
2022-11-21T03:45:39.968Z,14.50
2022-11-21T03:46:39.972Z,16.50
2022-11-21T03:47:39.955Z,10.80
2022-11-21T03:48:39.985Z,15.30
2022-11-21T03:49:39.961Z,13.60
2022-11-21T03:50:39.927Z,17.60
2022-11-21T03:51:39.924Z,17.70
2022-11-21T03:52:39.908Z,19.40
2022-11-21T03:53:39.909Z,13.40
2022-11-21T03:54:39.907Z,16.80
2022-11-21T03:55:39.889Z,15.70
2022-11-21T03:56:39.890Z,16.00
2022-11-21T03:57:39.853Z,12.20
2022-11-21T03:58:39.845Z,17.50
2022-11-21T03:59:39.857Z,16.30
2022-11-21T04:00:39.825Z,16.60
2022-11-21T04:01:39.856Z,13.70
2022-11-21T04:02:39.828Z,15.40
2022-11-21T04:03:39.799Z,16.20
2022-11-21T04:04:39.812Z,14.10
2022-11-21T04:05:39.767Z,16.60
2022-11-21T04:06:39.757Z,16.40
2022-11-21T04:07:39.790Z,17.00
2022-11-21T04:08:39.750Z,18.10
2022-11-21T04:09:39.776Z,16.00
2022-11-21T04:10:39.720Z,14.80
2022-11-21T04:11:39.709Z,15.20
2022-11-21T04:12:39.697Z,17.00
2022-11-21T04:13:39.690Z,15.60
2022-11-21T04:14:39.704Z,17.30
2022-11-21T04:15:39.665Z,16.50
2022-11-21T04:16:39.660Z,17.20
2022-11-21T04:17:39.649Z,17.90
2022-11-21T04:18:39.636Z,18.00
2022-11-21T04:19:39.688Z,18.50
2022-11-21T04:20:39.642Z,19.60
2022-11-21T04:21:39.614Z,17.10
2022-11-21T04:22:39.602Z,15.00
2022-11-21T04:23:39.590Z,15.30
2022-11-21T04:24:39.614Z,18.70
2022-11-21T04:25:39.572Z,22.30
2022-11-21T04:26:39.560Z,17.30
2022-11-21T04:27:39.543Z,17.30
2022-11-21T04:28:39.545Z,16.60
2022-11-21T04:29:39.531Z,22.10
2022-11-21T04:30:39.548Z,20.60
2022-11-21T04:31:39.500Z,19.80
2022-11-21T04:32:39.504Z,16.20
2022-11-21T04:33:39.524Z,17.40
2022-11-21T04:34:39.483Z,16.90
2022-11-21T04:35:39.507Z,17.10
2022-11-21T04:36:39.522Z,17.50
2022-11-21T04:37:39.441Z,20.40
2022-11-21T04:38:39.446Z,16.70
2022-11-21T04:39:39.439Z,20.90
2022-11-21T04:40:39.451Z,14.80
2022-11-21T04:41:39.450Z,18.00
2022-11-21T04:42:39.399Z,14.20
2022-11-21T04:43:45.888Z,17.30
2022-11-21T04:44:45.869Z,18.60
2022-11-21T04:45:48.027Z,18.20
2022-11-21T04:46:39.370Z,18.40
2022-11-21T04:47:46.835Z,15.00
2022-11-21T04:48:39.334Z,19.40
2022-11-21T04:49:39.316Z,17.90
2022-11-21T04:50:39.347Z,17.10
2022-11-21T04:51:39.324Z,22.70
2022-11-21T04:52:39.311Z,15.40
2022-11-21T04:53:42.936Z,18.80
2022-11-21T04:54:39.273Z,21.90
2022-11-21T04:55:39.283Z,20.80
2022-11-21T04:56:39.261Z,18.20
2022-11-21T04:57:39.249Z,19.10
2022-11-21T04:58:39.247Z,20.20
2022-11-21T04:59:39.218Z,21.60
2022-11-21T05:00:39.243Z,17.40
2022-11-21T05:01:39.237Z,21.10
2022-11-21T05:02:39.211Z,17.10
2022-11-21T05:03:39.269Z,21.90
2022-11-21T05:04:39.179Z,17.50
2022-11-21T05:05:47.068Z,13.00
2022-11-21T05:06:45.650Z,15.10
2022-11-21T05:07:45.625Z,17.60
2022-11-21T05:08:39.128Z,19.90
2022-11-21T05:09:39.129Z,23.00
2022-11-21T05:10:39.124Z,16.90
2022-11-21T05:11:39.120Z,14.60
2022-11-21T05:12:39.084Z,19.50
2022-11-21T05:13:39.081Z,21.50
2022-11-21T05:14:39.060Z,16.80
2022-11-21T05:15:39.087Z,21.50
2022-11-21T05:16:39.049Z,19.00
2022-11-21T05:17:39.041Z,18.30
2022-11-21T05:18:39.018Z,16.10
2022-11-21T05:19:39.021Z,23.20
2022-11-21T05:20:39.059Z,17.90
2022-11-21T05:21:38.999Z,14.60
2022-11-21T05:22:38.980Z,17.30
2022-11-21T05:23:38.975Z,17.50
2022-11-21T05:24:38.981Z,17.50
2022-11-21T05:25:38.982Z,18.20
2022-11-21T05:26:38.958Z,20.10
2022-11-21T05:27:38.948Z,18.10
2022-11-21T05:28:38.921Z,15.10
2022-11-21T05:29:46.452Z,21.40
2022-11-21T05:30:46.667Z,17.90
2022-11-21T05:31:38.891Z,15.80
2022-11-21T05:32:38.874Z,15.80
2022-11-21T05:33:38.876Z,13.40
2022-11-21T05:34:38.859Z,16.30
2022-11-21T05:35:42.920Z,19.90
2022-11-21T05:36:38.863Z,14.90
2022-11-21T05:37:38.827Z,14.40
2022-11-21T05:38:38.835Z,18.30
2022-11-21T05:39:38.811Z,17.20
2022-11-21T05:40:38.805Z,17.50
2022-11-21T05:41:38.807Z,21.80
2022-11-21T05:42:38.774Z,23.10
2022-11-21T05:43:38.790Z,16.10
2022-11-21T05:44:38.754Z,17.80
2022-11-21T05:45:38.910Z,20.40
2022-11-21T05:46:38.766Z,17.40
2022-11-21T05:47:38.739Z,20.70
2022-11-21T05:48:38.737Z,12.50
2022-11-21T05:49:38.716Z,16.60
2022-11-21T05:50:38.712Z,17.00
2022-11-21T05:51:38.706Z,16.10
2022-11-21T05:52:38.667Z,12.70
2022-11-21T05:53:38.667Z,15.10
2022-11-21T05:54:42.374Z,13.30
2022-11-21T05:55:38.649Z,17.90
2022-11-21T05:56:38.655Z,17.60
2022-11-21T05:57:38.625Z,18.90
2022-11-21T05:58:38.609Z,15.20
2022-11-21T05:59:38.601Z,19.90
2022-11-21T06:00:38.622Z,13.90
2022-11-21T06:01:38.612Z,17.70
2022-11-21T06:02:38.584Z,14.10
2022-11-21T06:03:38.571Z,20.40
2022-11-21T06:04:38.552Z,15.80
2022-11-21T06:05:38.544Z,17.70
2022-11-21T06:06:38.556Z,14.50
2022-11-21T06:07:38.570Z,16.90
2022-11-21T06:08:38.533Z,15.40
2022-11-21T06:09:38.511Z,18.20
2022-11-21T06:10:38.485Z,18.00
2022-11-21T06:11:38.509Z,15.60
2022-11-21T06:12:38.480Z,18.70
2022-11-21T06:13:38.481Z,19.00
2022-11-21T06:14:38.448Z,18.80
2022-11-21T06:15:38.441Z,17.30
2022-11-21T06:16:46.171Z,15.00
2022-11-21T06:17:44.919Z,16.70
2022-11-21T06:18:45.218Z,13.70
2022-11-21T06:19:45.899Z,15.20
2022-11-21T06:20:45.890Z,20.50
2022-11-21T06:21:46.248Z,12.10
2022-11-21T06:22:44.883Z,15.30
2022-11-21T06:23:38.357Z,17.00
2022-11-21T06:24:38.368Z,17.70
2022-11-21T06:25:38.344Z,14.40
2022-11-21T06:26:38.357Z,16.50
2022-11-21T06:27:38.322Z,15.70
2022-11-21T06:28:38.310Z,18.80
2022-11-21T06:29:38.326Z,19.50
2022-11-21T06:30:38.230Z,14.20
2022-11-21T06:31:38.316Z,14.00
2022-11-21T06:32:38.346Z,17.40
2022-11-21T06:33:38.206Z,16.10
2022-11-21T06:34:38.227Z,14.30
2022-11-21T06:35:38.188Z,18.10
2022-11-21T06:36:38.215Z,22.90
2022-11-21T06:37:38.172Z,14.70
2022-11-21T06:38:38.175Z,15.50
2022-11-21T06:39:38.142Z,15.70
2022-11-21T06:40:38.148Z,13.90
2022-11-21T06:41:38.173Z,13.10
2022-11-21T06:42:38.113Z,12.30
2022-11-21T06:43:38.099Z,17.10
2022-11-21T06:44:38.094Z,17.50
2022-11-21T06:45:38.080Z,13.30
2022-11-21T06:46:38.125Z,16.10
2022-11-21T06:47:38.069Z,13.10
2022-11-21T06:48:38.054Z,18.50
2022-11-21T06:49:38.037Z,15.60
2022-11-21T06:50:38.029Z,17.00
2022-11-21T06:51:38.055Z,20.70
2022-11-21T06:52:38.004Z,15.90
2022-11-21T06:53:38.016Z,17.60
2022-11-21T06:54:37.985Z,19.00
2022-11-21T06:55:37.977Z,14.70
2022-11-21T06:56:37.985Z,18.00
2022-11-21T06:57:37.951Z,15.00
2022-11-21T06:58:37.943Z,18.40
2022-11-21T06:59:37.939Z,14.00
2022-11-21T07:00:37.917Z,16.80
2022-11-21T07:01:45.826Z,17.30
2022-11-21T07:02:37.900Z,16.20
2022-11-21T07:03:37.894Z,17.10
2022-11-21T07:04:37.881Z,16.60
2022-11-21T07:05:37.892Z,14.80
2022-11-21T07:06:37.863Z,18.90
2022-11-21T07:07:37.953Z,15.30
2022-11-21T07:08:37.841Z,16.20
2022-11-21T07:09:37.833Z,13.90
2022-11-21T07:10:37.822Z,15.40
2022-11-21T07:11:37.826Z,16.90
2022-11-21T07:12:37.862Z,15.60
2022-11-21T07:13:37.795Z,12.50
2022-11-21T07:14:37.780Z,19.10
2022-11-21T07:15:37.805Z,21.50
2022-11-21T07:16:37.762Z,17.20
2022-11-21T07:17:37.785Z,19.60
2022-11-21T07:18:37.759Z,16.40
2022-11-21T07:19:40.810Z,17.30
2022-11-21T07:20:37.721Z,14.10
2022-11-21T07:21:37.726Z,17.90
2022-11-21T07:22:45.261Z,18.10
2022-11-21T07:23:44.181Z,17.00
2022-11-21T07:24:44.170Z,17.80
2022-11-21T07:25:37.688Z,18.40
2022-11-21T07:26:37.658Z,15.70
2022-11-21T07:27:37.690Z,16.00
2022-11-21T07:28:37.630Z,14.90
2022-11-21T07:29:37.638Z,17.70
2022-11-21T07:30:37.618Z,16.40
2022-11-21T07:31:37.608Z,15.70
2022-11-21T07:32:37.636Z,18.50
2022-11-21T07:33:37.602Z,15.50
2022-11-21T07:34:37.572Z,16.80
2022-11-21T07:35:37.581Z,16.90
2022-11-21T07:36:37.559Z,16.10
2022-11-21T07:37:37.563Z,18.20
2022-11-21T07:38:37.570Z,18.10
2022-11-21T07:39:37.529Z,14.20
2022-11-21T07:40:37.512Z,16.80
2022-11-21T07:41:37.533Z,21.50
2022-11-21T07:42:37.495Z,18.10
2022-11-21T07:43:37.507Z,18.30
2022-11-21T07:44:37.513Z,18.10
2022-11-21T07:45:37.461Z,17.80
2022-11-21T07:46:37.449Z,15.80
2022-11-21T07:47:37.447Z,18.40
2022-11-21T07:48:37.467Z,19.20
2022-11-21T07:49:37.420Z,15.50
2022-11-21T07:50:37.516Z,15.00
2022-11-21T07:51:37.398Z,18.40
2022-11-21T07:52:37.395Z,18.20
2022-11-21T07:53:37.442Z,17.80
2022-11-21T07:54:37.408Z,20.50
2022-11-21T07:55:40.573Z,16.80
2022-11-21T07:56:37.396Z,16.30
2022-11-21T07:57:37.343Z,20.50
2022-11-21T07:58:37.361Z,18.30
2022-11-21T07:59:37.324Z,20.20
2022-11-21T08:00:37.325Z,16.40
2022-11-21T08:01:40.218Z,17.50
2022-11-21T08:02:37.294Z,20.00
2022-11-21T08:03:37.321Z,17.70
2022-11-21T08:04:37.264Z,16.30
2022-11-21T08:05:37.261Z,17.20
2022-11-21T08:06:37.245Z,19.50
2022-11-21T08:07:37.297Z,14.60
2022-11-21T08:08:37.248Z,14.20
2022-11-21T08:09:39.793Z,16.20
2022-11-21T08:10:37.213Z,14.90
2022-11-21T08:11:37.193Z,13.40
2022-11-21T08:12:37.192Z,16.20
2022-11-21T08:13:37.201Z,23.00
2022-11-21T08:14:37.164Z,16.80
2022-11-21T08:15:37.170Z,19.10
2022-11-21T08:16:37.150Z,16.80
2022-11-21T08:17:37.156Z,17.30
2022-11-21T08:18:37.149Z,14.20
2022-11-21T08:19:37.114Z,18.10
2022-11-21T08:20:37.104Z,15.80
2022-11-21T08:21:37.112Z,14.60
2022-11-21T08:22:37.083Z,18.30
2022-11-21T08:23:37.104Z,14.30
2022-11-21T08:24:37.062Z,15.60
2022-11-21T08:25:37.053Z,18.30
2022-11-21T08:26:37.038Z,18.00
2022-11-21T08:27:37.058Z,14.70
2022-11-21T08:28:44.788Z,15.50
2022-11-21T08:29:37.012Z,14.80
2022-11-21T08:30:43.787Z,20.60
2022-11-21T08:31:43.491Z,20.90
2022-11-21T08:32:36.986Z,17.50
2022-11-21T08:33:36.999Z,18.30
2022-11-21T08:34:36.958Z,19.20
2022-11-21T08:35:36.959Z,19.10
2022-11-21T08:36:36.967Z,17.40
2022-11-21T08:37:36.982Z,14.20
2022-11-21T08:38:36.954Z,14.00
2022-11-21T08:39:36.920Z,19.60
2022-11-21T08:40:36.899Z,19.80
2022-11-21T08:41:36.899Z,12.90
2022-11-21T08:42:36.872Z,12.70
2022-11-21T08:43:36.955Z,15.10
2022-11-21T08:44:36.875Z,17.70
2022-11-21T08:45:36.849Z,18.00
2022-11-21T08:46:36.840Z,15.30
2022-11-21T08:47:36.824Z,15.60
2022-11-21T08:48:36.823Z,15.30
2022-11-21T08:49:36.833Z,17.00
2022-11-21T08:50:36.795Z,15.20
2022-11-21T08:51:36.788Z,16.10
2022-11-21T08:52:36.786Z,16.20
2022-11-21T08:53:36.763Z,15.80
2022-11-21T08:54:36.775Z,19.30
2022-11-21T08:55:36.788Z,17.90
2022-11-21T08:56:36.745Z,17.60
2022-11-21T08:57:36.719Z,18.30
2022-11-21T08:58:36.752Z,17.20
2022-11-21T08:59:36.735Z,14.40
2022-11-21T09:00:36.693Z,14.00
2022-11-21T09:01:36.757Z,16.10
2022-11-21T09:02:36.671Z,19.20
2022-11-21T09:03:36.666Z,15.80
2022-11-21T09:04:36.679Z,19.70
2022-11-21T09:05:36.639Z,15.80
2022-11-21T09:06:36.637Z,13.60
2022-11-21T09:07:36.744Z,16.00
2022-11-21T09:08:36.614Z,14.50
2022-11-21T09:09:36.619Z,14.70
2022-11-21T09:10:36.654Z,11.50
2022-11-21T09:11:44.377Z,16.50
2022-11-21T09:12:43.072Z,16.90
2022-11-21T09:13:43.084Z,15.60
2022-11-21T09:14:45.389Z,13.30
2022-11-21T09:15:43.043Z,14.30
2022-11-21T09:16:36.540Z,12.30
2022-11-21T09:17:43.015Z,16.20
2022-11-21T09:18:43.016Z,12.60
2022-11-21T09:19:44.435Z,15.70
2022-11-21T09:20:43.118Z,15.20
2022-11-21T09:21:36.483Z,13.60
2022-11-21T09:22:36.471Z,15.70
2022-11-21T09:23:36.488Z,15.70
2022-11-21T09:24:36.470Z,12.20
2022-11-21T09:25:36.450Z,13.90
2022-11-21T09:26:36.426Z,12.90
2022-11-21T09:27:36.410Z,14.50
2022-11-21T09:28:36.428Z,15.80
2022-11-21T09:29:36.421Z,17.40
2022-11-21T09:30:36.398Z,12.20
2022-11-21T09:31:36.390Z,13.70
2022-11-21T09:32:36.372Z,15.50
2022-11-21T09:33:36.367Z,14.70
2022-11-21T09:34:36.359Z,16.30
2022-11-21T09:35:36.360Z,14.00
2022-11-21T09:36:36.335Z,13.80
2022-11-21T09:37:36.319Z,12.40
2022-11-21T09:38:36.317Z,15.30
2022-11-21T09:39:36.383Z,15.30
2022-11-21T09:40:43.976Z,19.10
2022-11-21T09:41:42.783Z,14.30
2022-11-21T09:42:42.772Z,14.20
2022-11-21T09:43:42.770Z,14.80
2022-11-21T09:44:36.252Z,17.60
2022-11-21T09:45:36.332Z,16.00
2022-11-21T09:46:36.237Z,15.60
2022-11-21T09:47:36.256Z,15.30
2022-11-21T09:48:36.312Z,13.50
2022-11-21T09:49:36.206Z,14.60
2022-11-21T09:50:36.280Z,14.80
2022-11-21T09:51:36.179Z,14.60
2022-11-21T09:52:36.184Z,13.50
2022-11-21T09:53:36.184Z,16.00
2022-11-21T09:54:36.169Z,16.10
2022-11-21T09:55:36.153Z,17.00
2022-11-21T09:56:36.119Z,18.90
2022-11-21T09:57:36.122Z,17.60
2022-11-21T09:58:36.102Z,16.10
2022-11-21T09:59:36.088Z,15.50
2022-11-21T10:00:36.137Z,15.00
2022-11-21T10:01:36.143Z,16.80
2022-11-21T10:02:36.062Z,13.50
2022-11-21T10:03:36.047Z,16.60
2022-11-21T10:04:36.038Z,18.40
2022-11-21T10:05:36.065Z,15.00
2022-11-21T10:06:36.019Z,17.80
2022-11-21T10:07:36.017Z,18.00
2022-11-21T10:08:36.012Z,14.80
2022-11-21T10:09:36.001Z,19.70
2022-11-21T10:10:36.005Z,17.70
2022-11-21T10:11:35.979Z,14.90
2022-11-21T10:12:35.961Z,21.80
2022-11-21T10:13:35.942Z,17.00
2022-11-21T10:14:35.942Z,15.70
2022-11-21T10:15:35.950Z,19.30
2022-11-21T10:16:41.693Z,15.70
2022-11-21T10:17:35.910Z,12.40
2022-11-21T10:18:35.899Z,16.60
2022-11-21T10:19:35.885Z,17.10
2022-11-21T10:20:35.897Z,22.50
2022-11-21T10:21:35.868Z,17.10
2022-11-21T10:22:35.863Z,16.10
2022-11-21T10:23:35.842Z,20.40
2022-11-21T10:24:35.844Z,17.00
2022-11-21T10:25:35.868Z,14.50
2022-11-21T10:26:35.818Z,21.30
2022-11-21T10:27:35.811Z,21.10
2022-11-21T10:28:35.802Z,22.50
2022-11-21T10:29:35.778Z,20.20
2022-11-21T10:30:35.800Z,15.60
2022-11-21T10:31:35.765Z,19.40
2022-11-21T10:32:35.756Z,19.90
2022-11-21T10:33:35.744Z,20.50
2022-11-21T10:34:35.802Z,21.80
2022-11-21T10:35:35.769Z,13.00
2022-11-21T10:36:35.723Z,19.50
2022-11-21T10:37:35.707Z,23.10
2022-11-21T10:38:35.697Z,15.90
2022-11-21T10:39:35.690Z,11.40
2022-11-21T10:40:35.679Z,18.50
2022-11-21T10:41:35.721Z,19.40
2022-11-21T10:42:42.152Z,16.40
2022-11-21T10:43:42.152Z,18.70
2022-11-21T10:44:42.129Z,22.00
2022-11-21T10:45:43.539Z,18.00
2022-11-21T10:46:42.105Z,17.90
2022-11-21T10:47:42.105Z,22.10
2022-11-21T10:48:42.101Z,15.50
2022-11-21T10:49:35.579Z,22.30
2022-11-21T10:50:35.670Z,19.00
2022-11-21T10:51:35.590Z,18.00
2022-11-21T10:52:35.569Z,18.90
2022-11-21T10:53:35.548Z,27.60
2022-11-21T10:54:35.532Z,17.40
2022-11-21T10:55:35.525Z,18.10
2022-11-21T10:56:35.549Z,20.10
2022-11-21T10:57:35.498Z,23.70
2022-11-21T10:58:35.495Z,19.30
2022-11-21T10:59:35.484Z,18.30
2022-11-21T11:00:35.495Z,21.60
2022-11-21T11:01:35.484Z,22.20
2022-11-21T11:02:35.451Z,19.90
2022-11-21T11:03:35.463Z,23.60
2022-11-21T11:04:45.649Z,22.30
2022-11-21T11:05:35.424Z,21.20
2022-11-21T11:06:35.438Z,17.70
2022-11-21T11:07:35.510Z,24.20
2022-11-21T11:08:35.395Z,25.70
2022-11-21T11:09:35.383Z,24.20
2022-11-21T11:10:35.384Z,27.20
2022-11-21T11:11:35.390Z,20.90
2022-11-21T11:12:35.357Z,27.90
2022-11-21T11:13:45.938Z,20.80
2022-11-21T11:14:35.354Z,18.30
2022-11-21T11:15:35.325Z,24.20
2022-11-21T11:16:41.258Z,19.70
2022-11-21T11:17:35.305Z,32.00
2022-11-21T11:18:35.309Z,26.10
2022-11-21T11:19:40.174Z,26.00
2022-11-21T11:20:35.313Z,24.60
2022-11-21T11:21:35.288Z,23.40
2022-11-21T11:22:35.287Z,23.10
2022-11-21T11:23:35.252Z,24.10
2022-11-21T11:24:35.232Z,26.20
2022-11-21T11:25:35.230Z,23.80
2022-11-21T11:26:35.258Z,20.30
2022-11-21T11:27:35.202Z,24.80
2022-11-21T11:28:35.206Z,22.40
2022-11-21T11:29:35.237Z,22.90
2022-11-21T11:30:35.175Z,25.70
2022-11-21T11:31:35.197Z,34.70
2022-11-21T11:32:35.163Z,26.10
2022-11-21T11:33:35.168Z,21.10
2022-11-21T11:34:41.677Z,26.30
2022-11-21T11:35:35.122Z,31.10
2022-11-21T11:36:35.118Z,24.90
2022-11-21T11:37:40.008Z,29.30
2022-11-21T11:38:35.111Z,24.20
2022-11-21T11:39:35.092Z,34.40
2022-11-21T11:40:35.104Z,27.60
2022-11-21T11:41:35.065Z,29.00
2022-11-21T11:42:35.082Z,28.00
2022-11-21T11:43:35.095Z,25.60
2022-11-21T11:44:35.037Z,29.60
2022-11-21T11:45:35.025Z,27.90
2022-11-21T11:46:35.019Z,28.80
2022-11-21T11:47:35.039Z,28.10
2022-11-21T11:48:45.252Z,28.80
2022-11-21T11:49:35.301Z,31.70
2022-11-21T11:50:34.977Z,34.70
2022-11-21T11:51:34.962Z,35.60
2022-11-21T11:52:34.995Z,29.30
2022-11-21T11:53:34.958Z,25.10
2022-11-21T11:54:34.933Z,31.80
2022-11-21T11:55:34.936Z,30.30
2022-11-21T11:56:34.915Z,29.70
2022-11-21T11:57:34.926Z,31.80
2022-11-21T11:58:34.899Z,26.20
2022-11-21T11:59:41.365Z,30.60
2022-11-21T12:00:41.365Z,33.30
2022-11-21T12:01:41.383Z,33.70
2022-11-21T12:02:42.734Z,31.50
2022-11-21T12:03:34.842Z,31.80
2022-11-21T12:04:34.827Z,31.10
2022-11-21T12:05:34.823Z,27.00
2022-11-21T12:07:18.047Z,30.90
2022-11-21T12:08:42.954Z,27.80
2022-11-21T12:09:34.827Z,33.30
2022-11-21T12:10:34.760Z,31.30
2022-11-21T12:11:34.760Z,32.00
2022-11-21T12:12:34.766Z,33.50
2022-11-21T12:13:34.736Z,32.00
2022-11-21T12:14:34.727Z,32.30
2022-11-21T12:15:34.718Z,34.40
2022-11-21T12:16:34.709Z,34.90
2022-11-21T12:17:34.714Z,30.60
2022-11-21T12:18:34.686Z,39.80
2022-11-21T12:19:34.679Z,36.40
2022-11-21T12:20:34.663Z,34.30
2022-11-21T12:21:34.666Z,35.80
2022-11-21T12:22:34.667Z,35.80
2022-11-21T12:23:34.632Z,29.60
2022-11-21T12:24:38.442Z,30.80
2022-11-21T12:25:34.619Z,29.60
2022-11-21T12:26:34.607Z,37.40
2022-11-21T12:27:34.629Z,35.70
2022-11-21T12:28:34.592Z,37.10
2022-11-21T12:29:34.575Z,28.20
2022-11-21T12:30:34.563Z,40.10
2022-11-21T12:31:34.545Z,35.90
2022-11-21T12:32:34.558Z,37.70
2022-11-21T12:33:34.635Z,34.90
2022-11-21T12:34:34.529Z,33.60
2022-11-21T12:35:34.508Z,33.00
2022-11-21T12:36:34.511Z,33.20
2022-11-21T12:37:34.504Z,32.90
2022-11-21T12:38:34.474Z,34.80
2022-11-21T12:39:34.472Z,37.40
2022-11-21T12:40:34.447Z,37.80
2022-11-21T12:41:34.446Z,30.70
2022-11-21T12:42:34.461Z,37.90
2022-11-21T12:43:34.428Z,40.30
2022-11-21T12:44:34.404Z,40.70
2022-11-21T12:45:34.407Z,31.50
2022-11-21T12:46:34.389Z,30.50
2022-11-21T12:47:34.398Z,34.30
2022-11-21T12:48:34.360Z,46.50
2022-11-21T12:49:34.371Z,40.00
2022-11-21T12:50:34.346Z,38.50
2022-11-21T12:51:34.366Z,43.50
2022-11-21T12:52:34.350Z,46.10
2022-11-21T12:53:34.312Z,44.00